sensor_id;sensor_type;location;lat;lon;timestamp;P1;durP1;ratioP1;P2;durP2;ratioP2
65206;SDS011;58477;48.072;11.970;2022-10-16T00:00:23;3.30;;;3.00;;
65206;SDS011;58477;48.072;11.970;2022-10-16T00:02:48;7.50;;;3.85;;
65206;SDS011;58477;48.072;11.970;2022-10-16T00:05:13;6.60;;;3.28;;
65206;SDS011;58477;48.072;11.970;2022-10-16T00:07:39;6.50;;;3.33;;
65206;SDS011;58477;48.072;11.970;2022-10-16T00:10:04;10.55;;;3.83;;
65206;SDS011;58477;48.072;11.970;2022-10-16T00:12:30;7.55;;;3.95;;
65206;SDS011;58477;48.072;11.970;2022-10-16T00:14:55;5.68;;;3.20;;
65206;SDS011;58477;48.072;11.970;2022-10-16T00:17:21;4.03;;;3.22;;
65206;SDS011;58477;48.072;11.970;2022-10-16T00:19:46;5.78;;;3.40;;
65206;SDS011;58477;48.072;11.970;2022-10-16T00:22:12;7.03;;;3.50;;
65206;SDS011;58477;48.072;11.970;2022-10-16T00:24:37;3.60;;;3.28;;
65206;SDS011;58477;48.072;11.970;2022-10-16T00:27:03;9.13;;;3.67;;
65206;SDS011;58477;48.072;11.970;2022-10-16T00:29:28;8.52;;;3.13;;
65206;SDS011;58477;48.072;11.970;2022-10-16T00:31:53;6.43;;;3.10;;
65206;SDS011;58477;48.072;11.970;2022-10-16T00:34:19;4.28;;;3.20;;
65206;SDS011;58477;48.072;11.970;2022-10-16T00:36:44;4.03;;;3.00;;
65206;SDS011;58477;48.072;11.970;2022-10-16T00:39:10;18.35;;;3.42;;
65206;SDS011;58477;48.072;11.970;2022-10-16T00:41:35;7.07;;;2.78;;
65206;SDS011;58477;48.072;11.970;2022-10-16T00:44:02;4.82;;;3.08;;
65206;SDS011;58477;48.072;11.970;2022-10-16T00:46:30;5.97;;;3.33;;
65206;SDS011;58477;48.072;11.970;2022-10-16T00:49:14;5.28;;;3.90;;
65206;SDS011;58477;48.072;11.970;2022-10-16T00:54:11;13.35;;;3.60;;
65206;SDS011;58477;48.072;11.970;2022-10-16T00:56:39;6.25;;;3.33;;
65206;SDS011;58477;48.072;11.970;2022-10-16T00:59:07;14.82;;;3.47;;
65206;SDS011;58477;48.072;11.970;2022-10-16T01:01:40;3.55;;;3.20;;
65206;SDS011;58477;48.072;11.970;2022-10-16T01:04:05;3.63;;;2.95;;
65206;SDS011;58477;48.072;11.970;2022-10-16T01:11:44;5.05;;;2.78;;
65206;SDS011;58477;48.072;11.970;2022-10-16T01:14:58;6.97;;;3.13;;
65206;SDS011;58477;48.072;11.970;2022-10-16T01:17:14;4.80;;;2.90;;
65206;SDS011;58477;48.072;11.970;2022-10-16T01:25:54;4.00;;;2.80;;
65206;SDS011;58477;48.072;11.970;2022-10-16T01:28:28;3.05;;;2.70;;
65206;SDS011;58477;48.072;11.970;2022-10-16T01:31:02;4.13;;;3.22;;
65206;SDS011;58477;48.072;11.970;2022-10-16T01:33:29;4.70;;;3.65;;
65206;SDS011;58477;48.072;11.970;2022-10-16T01:36:15;3.70;;;3.30;;
65206;SDS011;58477;48.072;11.970;2022-10-16T01:38:44;8.68;;;3.80;;
65206;SDS011;58477;48.072;11.970;2022-10-16T01:41:24;7.80;;;3.33;;
65206;SDS011;58477;48.072;11.970;2022-10-16T01:46:50;6.43;;;3.22;;
65206;SDS011;58477;48.072;11.970;2022-10-16T01:49:17;6.82;;;3.42;;
65206;SDS011;58477;48.072;11.970;2022-10-16T01:51:46;5.82;;;3.10;;
65206;SDS011;58477;48.072;11.970;2022-10-16T01:54:14;6.00;;;3.58;;
65206;SDS011;58477;48.072;11.970;2022-10-16T01:56:42;5.43;;;3.53;;
65206;SDS011;58477;48.072;11.970;2022-10-16T01:59:16;9.40;;;2.97;;
65206;SDS011;58477;48.072;11.970;2022-10-16T02:01:45;5.60;;;3.47;;
65206;SDS011;58477;48.072;11.970;2022-10-16T02:04:16;9.75;;;3.80;;
65206;SDS011;58477;48.072;11.970;2022-10-16T02:06:46;10.43;;;3.97;;
65206;SDS011;58477;48.072;11.970;2022-10-16T02:09:11;5.60;;;3.80;;
65206;SDS011;58477;48.072;11.970;2022-10-16T02:11:37;18.05;;;4.03;;
65206;SDS011;58477;48.072;11.970;2022-10-16T02:14:04;16.90;;;3.30;;
65206;SDS011;58477;48.072;11.970;2022-10-16T02:19:01;6.90;;;3.40;;
65206;SDS011;58477;48.072;11.970;2022-10-16T02:21:28;6.07;;;3.28;;
65206;SDS011;58477;48.072;11.970;2022-10-16T02:24:02;5.50;;;3.65;;
65206;SDS011;58477;48.072;11.970;2022-10-16T02:29:06;7.40;;;3.85;;
65206;SDS011;58477;48.072;11.970;2022-10-16T02:31:35;6.30;;;4.40;;
65206;SDS011;58477;48.072;11.970;2022-10-16T02:34:06;6.70;;;3.90;;
65206;SDS011;58477;48.072;11.970;2022-10-16T02:36:33;8.05;;;3.95;;
65206;SDS011;58477;48.072;11.970;2022-10-16T02:39:01;4.50;;;3.55;;
65206;SDS011;58477;48.072;11.970;2022-10-16T02:41:28;4.93;;;3.80;;
65206;SDS011;58477;48.072;11.970;2022-10-16T02:43:55;12.35;;;3.70;;
65206;SDS011;58477;48.072;11.970;2022-10-16T02:46:20;6.28;;;4.07;;
65206;SDS011;58477;48.072;11.970;2022-10-16T02:48:46;5.43;;;4.30;;
65206;SDS011;58477;48.072;11.970;2022-10-16T02:51:12;8.23;;;5.30;;
65206;SDS011;58477;48.072;11.970;2022-10-16T02:53:37;9.00;;;4.80;;
65206;SDS011;58477;48.072;11.970;2022-10-16T02:56:03;4.82;;;4.05;;
65206;SDS011;58477;48.072;11.970;2022-10-16T02:58:28;6.10;;;3.80;;
65206;SDS011;58477;48.072;11.970;2022-10-16T03:00:54;11.05;;;4.13;;
65206;SDS011;58477;48.072;11.970;2022-10-16T03:03:20;6.25;;;4.10;;
65206;SDS011;58477;48.072;11.970;2022-10-16T03:05:45;5.85;;;4.22;;
65206;SDS011;58477;48.072;11.970;2022-10-16T03:08:11;12.73;;;9.98;;
65206;SDS011;58477;48.072;11.970;2022-10-16T03:10:37;7.43;;;5.18;;
65206;SDS011;58477;48.072;11.970;2022-10-16T03:13:03;8.45;;;5.38;;
65206;SDS011;58477;48.072;11.970;2022-10-16T03:15:28;14.68;;;10.40;;
65206;SDS011;58477;48.072;11.970;2022-10-16T03:17:54;12.40;;;9.02;;
65206;SDS011;58477;48.072;11.970;2022-10-16T03:20:20;9.23;;;4.90;;
65206;SDS011;58477;48.072;11.970;2022-10-16T03:22:45;7.30;;;4.78;;
65206;SDS011;58477;48.072;11.970;2022-10-16T03:25:11;4.72;;;4.20;;
65206;SDS011;58477;48.072;11.970;2022-10-16T03:27:36;5.95;;;5.00;;
65206;SDS011;58477;48.072;11.970;2022-10-16T03:30:02;4.95;;;4.50;;
65206;SDS011;58477;48.072;11.970;2022-10-16T03:32:28;9.95;;;5.68;;
65206;SDS011;58477;48.072;11.970;2022-10-16T03:34:53;5.20;;;4.70;;
65206;SDS011;58477;48.072;11.970;2022-10-16T03:37:19;13.32;;;5.22;;
65206;SDS011;58477;48.072;11.970;2022-10-16T03:39:45;6.18;;;3.65;;
65206;SDS011;58477;48.072;11.970;2022-10-16T03:42:11;20.90;;;4.55;;
65206;SDS011;58477;48.072;11.970;2022-10-16T03:44:37;13.05;;;5.28;;
65206;SDS011;58477;48.072;11.970;2022-10-16T03:47:03;15.55;;;3.83;;
65206;SDS011;58477;48.072;11.970;2022-10-16T03:49:28;25.23;;;4.53;;
65206;SDS011;58477;48.072;11.970;2022-10-16T03:51:53;8.73;;;3.90;;
65206;SDS011;58477;48.072;11.970;2022-10-16T03:54:19;6.68;;;3.00;;
65206;SDS011;58477;48.072;11.970;2022-10-16T03:56:45;3.70;;;2.92;;
65206;SDS011;58477;48.072;11.970;2022-10-16T03:59:10;7.07;;;3.72;;
65206;SDS011;58477;48.072;11.970;2022-10-16T04:01:35;10.32;;;2.80;;
65206;SDS011;58477;48.072;11.970;2022-10-16T04:04:01;4.20;;;2.72;;
65206;SDS011;58477;48.072;11.970;2022-10-16T04:06:26;6.07;;;2.90;;
65206;SDS011;58477;48.072;11.970;2022-10-16T04:08:52;4.15;;;3.25;;
65206;SDS011;58477;48.072;11.970;2022-10-16T04:11:17;3.10;;;2.50;;
65206;SDS011;58477;48.072;11.970;2022-10-16T04:13:42;6.22;;;2.75;;
65206;SDS011;58477;48.072;11.970;2022-10-16T04:16:08;6.45;;;2.40;;
65206;SDS011;58477;48.072;11.970;2022-10-16T04:18:34;2.70;;;2.50;;
65206;SDS011;58477;48.072;11.970;2022-10-16T04:21:04;2.53;;;2.28;;
65206;SDS011;58477;48.072;11.970;2022-10-16T04:23:30;2.78;;;2.58;;
65206;SDS011;58477;48.072;11.970;2022-10-16T04:25:56;4.90;;;2.53;;
65206;SDS011;58477;48.072;11.970;2022-10-16T04:28:21;3.65;;;2.92;;
65206;SDS011;58477;48.072;11.970;2022-10-16T04:30:46;6.78;;;3.08;;
65206;SDS011;58477;48.072;11.970;2022-10-16T04:33:12;4.15;;;3.08;;
65206;SDS011;58477;48.072;11.970;2022-10-16T04:35:38;12.88;;;3.13;;
65206;SDS011;58477;48.072;11.970;2022-10-16T04:38:03;3.72;;;2.50;;
65206;SDS011;58477;48.072;11.970;2022-10-16T04:40:29;6.72;;;2.85;;
65206;SDS011;58477;48.072;11.970;2022-10-16T04:42:58;4.28;;;2.78;;
65206;SDS011;58477;48.072;11.970;2022-10-16T04:45:24;4.97;;;2.78;;
65206;SDS011;58477;48.072;11.970;2022-10-16T04:47:50;3.55;;;2.90;;
65206;SDS011;58477;48.072;11.970;2022-10-16T04:50:15;2.85;;;2.55;;
65206;SDS011;58477;48.072;11.970;2022-10-16T04:52:59;11.55;;;3.25;;
65206;SDS011;58477;48.072;11.970;2022-10-16T04:55:25;3.60;;;2.45;;
65206;SDS011;58477;48.072;11.970;2022-10-16T04:57:50;6.78;;;2.40;;
65206;SDS011;58477;48.072;11.970;2022-10-16T05:00:16;7.75;;;2.45;;
65206;SDS011;58477;48.072;11.970;2022-10-16T05:02:41;3.85;;;2.80;;
65206;SDS011;58477;48.072;11.970;2022-10-16T05:05:07;5.10;;;2.75;;
65206;SDS011;58477;48.072;11.970;2022-10-16T05:07:33;5.85;;;2.88;;
65206;SDS011;58477;48.072;11.970;2022-10-16T05:09:58;7.25;;;2.70;;
65206;SDS011;58477;48.072;11.970;2022-10-16T05:12:24;7.65;;;2.88;;
65206;SDS011;58477;48.072;11.970;2022-10-16T05:14:49;10.30;;;3.78;;
65206;SDS011;58477;48.072;11.970;2022-10-16T05:17:14;5.60;;;3.00;;
65206;SDS011;58477;48.072;11.970;2022-10-16T05:19:40;3.13;;;2.78;;
65206;SDS011;58477;48.072;11.970;2022-10-16T05:22:05;2.92;;;2.50;;
65206;SDS011;58477;48.072;11.970;2022-10-16T05:24:31;8.18;;;3.22;;
65206;SDS011;58477;48.072;11.970;2022-10-16T05:26:56;12.68;;;3.33;;
65206;SDS011;58477;48.072;11.970;2022-10-16T05:29:22;4.55;;;2.80;;
65206;SDS011;58477;48.072;11.970;2022-10-16T05:31:49;4.13;;;2.95;;
65206;SDS011;58477;48.072;11.970;2022-10-16T05:34:16;9.10;;;2.88;;
65206;SDS011;58477;48.072;11.970;2022-10-16T05:36:41;7.97;;;2.92;;
65206;SDS011;58477;48.072;11.970;2022-10-16T05:39:06;5.20;;;3.10;;
65206;SDS011;58477;48.072;11.970;2022-10-16T05:41:32;3.08;;;2.78;;
65206;SDS011;58477;48.072;11.970;2022-10-16T05:43:57;5.70;;;2.67;;
65206;SDS011;58477;48.072;11.970;2022-10-16T05:46:23;4.22;;;3.10;;
65206;SDS011;58477;48.072;11.970;2022-10-16T05:48:51;4.75;;;3.42;;
65206;SDS011;58477;48.072;11.970;2022-10-16T05:51:17;4.85;;;3.20;;
65206;SDS011;58477;48.072;11.970;2022-10-16T05:53:42;6.72;;;3.53;;
65206;SDS011;58477;48.072;11.970;2022-10-16T05:56:09;7.57;;;2.85;;
65206;SDS011;58477;48.072;11.970;2022-10-16T05:58:36;4.45;;;2.60;;
65206;SDS011;58477;48.072;11.970;2022-10-16T06:01:15;3.65;;;2.70;;
65206;SDS011;58477;48.072;11.970;2022-10-16T06:03:42;3.88;;;3.03;;
65206;SDS011;58477;48.072;11.970;2022-10-16T06:08:38;3.97;;;3.03;;
65206;SDS011;58477;48.072;11.970;2022-10-16T06:11:05;6.50;;;3.03;;
65206;SDS011;58477;48.072;11.970;2022-10-16T06:13:32;8.18;;;3.00;;
65206;SDS011;58477;48.072;11.970;2022-10-16T06:15:58;7.85;;;2.85;;
65206;SDS011;58477;48.072;11.970;2022-10-16T06:18:25;6.28;;;2.60;;
65206;SDS011;58477;48.072;11.970;2022-10-16T06:20:52;3.25;;;2.67;;
65206;SDS011;58477;48.072;11.970;2022-10-16T06:23:17;3.15;;;2.83;;
65206;SDS011;58477;48.072;11.970;2022-10-16T06:25:43;8.38;;;2.78;;
65206;SDS011;58477;48.072;11.970;2022-10-16T06:28:09;3.53;;;2.72;;
65206;SDS011;58477;48.072;11.970;2022-10-16T06:30:34;6.78;;;2.75;;
65206;SDS011;58477;48.072;11.970;2022-10-16T06:33:00;4.35;;;2.65;;
65206;SDS011;58477;48.072;11.970;2022-10-16T06:35:28;2.83;;;2.60;;
65206;SDS011;58477;48.072;11.970;2022-10-16T06:37:54;9.52;;;2.90;;
65206;SDS011;58477;48.072;11.970;2022-10-16T06:40:20;7.88;;;2.42;;
65206;SDS011;58477;48.072;11.970;2022-10-16T06:42:45;2.88;;;2.45;;
65206;SDS011;58477;48.072;11.970;2022-10-16T06:45:11;2.67;;;2.33;;
65206;SDS011;58477;48.072;11.970;2022-10-16T06:47:37;8.55;;;2.72;;
65206;SDS011;58477;48.072;11.970;2022-10-16T06:50:03;5.53;;;2.63;;
65206;SDS011;58477;48.072;11.970;2022-10-16T06:52:29;3.15;;;2.67;;
65206;SDS011;58477;48.072;11.970;2022-10-16T06:54:55;7.60;;;2.42;;
65206;SDS011;58477;48.072;11.970;2022-10-16T06:57:20;6.05;;;2.70;;
65206;SDS011;58477;48.072;11.970;2022-10-16T06:59:45;6.70;;;2.88;;
65206;SDS011;58477;48.072;11.970;2022-10-16T07:02:11;4.07;;;2.50;;
65206;SDS011;58477;48.072;11.970;2022-10-16T07:04:36;3.95;;;2.60;;
65206;SDS011;58477;48.072;11.970;2022-10-16T07:07:02;6.35;;;2.88;;
65206;SDS011;58477;48.072;11.970;2022-10-16T07:09:27;4.22;;;2.70;;
65206;SDS011;58477;48.072;11.970;2022-10-16T07:11:53;3.55;;;2.70;;
65206;SDS011;58477;48.072;11.970;2022-10-16T07:14:19;10.77;;;3.15;;
65206;SDS011;58477;48.072;11.970;2022-10-16T07:16:46;3.20;;;2.90;;
65206;SDS011;58477;48.072;11.970;2022-10-16T07:19:12;3.05;;;2.65;;
65206;SDS011;58477;48.072;11.970;2022-10-16T07:21:40;5.10;;;2.45;;
65206;SDS011;58477;48.072;11.970;2022-10-16T07:24:07;4.38;;;2.28;;
65206;SDS011;58477;48.072;11.970;2022-10-16T07:26:36;4.30;;;2.00;;
65206;SDS011;58477;48.072;11.970;2022-10-16T07:29:04;5.68;;;2.40;;
65206;SDS011;58477;48.072;11.970;2022-10-16T07:31:31;7.60;;;2.10;;
65206;SDS011;58477;48.072;11.970;2022-10-16T07:33:58;2.33;;;1.98;;
65206;SDS011;58477;48.072;11.970;2022-10-16T07:36:24;6.20;;;2.80;;
65206;SDS011;58477;48.072;11.970;2022-10-16T07:38:49;2.60;;;2.40;;
65206;SDS011;58477;48.072;11.970;2022-10-16T07:41:15;3.40;;;2.22;;
65206;SDS011;58477;48.072;11.970;2022-10-16T07:43:46;3.47;;;2.45;;
65206;SDS011;58477;48.072;11.970;2022-10-16T07:46:12;2.42;;;1.83;;
65206;SDS011;58477;48.072;11.970;2022-10-16T07:48:38;2.22;;;1.73;;
65206;SDS011;58477;48.072;11.970;2022-10-16T07:51:05;4.72;;;2.00;;
65206;SDS011;58477;48.072;11.970;2022-10-16T07:53:31;3.67;;;2.22;;
65206;SDS011;58477;48.072;11.970;2022-10-16T07:56:00;3.92;;;1.85;;
65206;SDS011;58477;48.072;11.970;2022-10-16T07:58:27;3.40;;;1.70;;
65206;SDS011;58477;48.072;11.970;2022-10-16T08:00:53;2.00;;;1.90;;
65206;SDS011;58477;48.072;11.970;2022-10-16T08:03:19;4.22;;;2.00;;
65206;SDS011;58477;48.072;11.970;2022-10-16T08:05:44;3.90;;;2.10;;
65206;SDS011;58477;48.072;11.970;2022-10-16T08:08:13;1.95;;;1.73;;
65206;SDS011;58477;48.072;11.970;2022-10-16T08:10:39;2.50;;;1.80;;
65206;SDS011;58477;48.072;11.970;2022-10-16T08:13:05;4.07;;;2.20;;
65206;SDS011;58477;48.072;11.970;2022-10-16T08:15:30;3.47;;;1.52;;
65206;SDS011;58477;48.072;11.970;2022-10-16T08:18:03;5.60;;;2.70;;
65206;SDS011;58477;48.072;11.970;2022-10-16T08:20:30;3.50;;;2.10;;
65206;SDS011;58477;48.072;11.970;2022-10-16T08:22:57;2.55;;;2.22;;
65206;SDS011;58477;48.072;11.970;2022-10-16T08:25:24;5.82;;;2.40;;
65206;SDS011;58477;48.072;11.970;2022-10-16T08:27:50;6.85;;;2.33;;
65206;SDS011;58477;48.072;11.970;2022-10-16T08:30:16;2.47;;;2.00;;
65206;SDS011;58477;48.072;11.970;2022-10-16T08:32:43;4.18;;;1.90;;
65206;SDS011;58477;48.072;11.970;2022-10-16T08:35:10;6.57;;;1.80;;
65206;SDS011;58477;48.072;11.970;2022-10-16T08:37:36;2.28;;;1.40;;
65206;SDS011;58477;48.072;11.970;2022-10-16T08:40:02;4.05;;;1.67;;
65206;SDS011;58477;48.072;11.970;2022-10-16T08:48:43;3.15;;;1.60;;
65206;SDS011;58477;48.072;11.970;2022-10-16T08:51:29;7.05;;;1.65;;
65206;SDS011;58477;48.072;11.970;2022-10-16T08:53:57;3.30;;;2.08;;
65206;SDS011;58477;48.072;11.970;2022-10-16T08:56:26;5.13;;;1.58;;
65206;SDS011;58477;48.072;11.970;2022-10-16T08:58:52;1.50;;;1.40;;
65206;SDS011;58477;48.072;11.970;2022-10-16T09:01:35;6.07;;;1.52;;
65206;SDS011;58477;48.072;11.970;2022-10-16T09:18:37;2.47;;;1.40;;
65206;SDS011;58477;48.072;11.970;2022-10-16T09:21:13;2.13;;;1.35;;
65206;SDS011;58477;48.072;11.970;2022-10-16T09:23:43;5.78;;;1.33;;
65206;SDS011;58477;48.072;11.970;2022-10-16T09:26:12;2.47;;;1.33;;
65206;SDS011;58477;48.072;11.970;2022-10-16T09:28:39;2.58;;;1.55;;
65206;SDS011;58477;48.072;11.970;2022-10-16T09:31:05;6.78;;;1.50;;
65206;SDS011;58477;48.072;11.970;2022-10-16T09:33:35;6.10;;;1.40;;
65206;SDS011;58477;48.072;11.970;2022-10-16T09:36:03;2.05;;;1.70;;
65206;SDS011;58477;48.072;11.970;2022-10-16T09:38:31;1.45;;;1.30;;
65206;SDS011;58477;48.072;11.970;2022-10-16T09:41:02;2.67;;;1.35;;
65206;SDS011;58477;48.072;11.970;2022-10-16T09:43:42;1.67;;;1.27;;
65206;SDS011;58477;48.072;11.970;2022-10-16T09:46:21;4.55;;;1.40;;
65206;SDS011;58477;48.072;11.970;2022-10-16T09:51:32;3.55;;;1.40;;
65206;SDS011;58477;48.072;11.970;2022-10-16T09:54:01;2.75;;;1.48;;
65206;SDS011;58477;48.072;11.970;2022-10-16T09:56:34;2.92;;;1.50;;
65206;SDS011;58477;48.072;11.970;2022-10-16T09:59:14;4.97;;;1.73;;
65206;SDS011;58477;48.072;11.970;2022-10-16T10:01:51;5.15;;;1.75;;
65206;SDS011;58477;48.072;11.970;2022-10-16T10:04:19;1.60;;;1.50;;
65206;SDS011;58477;48.072;11.970;2022-10-16T10:06:46;1.73;;;1.40;;
65206;SDS011;58477;48.072;11.970;2022-10-16T10:09:27;3.67;;;1.60;;
65206;SDS011;58477;48.072;11.970;2022-10-16T10:12:00;2.97;;;1.30;;
65206;SDS011;58477;48.072;11.970;2022-10-16T10:14:44;1.88;;;1.52;;
65206;SDS011;58477;48.072;11.970;2022-10-16T10:17:20;1.60;;;1.50;;
65206;SDS011;58477;48.072;11.970;2022-10-16T10:19:48;1.60;;;1.50;;
65206;SDS011;58477;48.072;11.970;2022-10-16T10:22:38;3.00;;;1.50;;
65206;SDS011;58477;48.072;11.970;2022-10-16T10:33:19;1.98;;;1.48;;
65206;SDS011;58477;48.072;11.970;2022-10-16T10:35:52;2.45;;;1.50;;
65206;SDS011;58477;48.072;11.970;2022-10-16T10:38:50;2.22;;;1.52;;
65206;SDS011;58477;48.072;11.970;2022-10-16T10:43:56;1.92;;;1.42;;
65206;SDS011;58477;48.072;11.970;2022-10-16T10:46:57;1.92;;;1.15;;
65206;SDS011;58477;48.072;11.970;2022-10-16T10:54:51;4.65;;;1.60;;
65206;SDS011;58477;48.072;11.970;2022-10-16T10:58:29;6.05;;;1.73;;
65206;SDS011;58477;48.072;11.970;2022-10-16T11:00:29;4.43;;;1.50;;
65206;SDS011;58477;48.072;11.970;2022-10-16T11:03:13;3.10;;;1.40;;
65206;SDS011;58477;48.072;11.970;2022-10-16T11:06:05;1.45;;;1.35;;
65206;SDS011;58477;48.072;11.970;2022-10-16T11:08:41;1.40;;;1.17;;
65206;SDS011;58477;48.072;11.970;2022-10-16T11:11:20;3.05;;;1.50;;
65206;SDS011;58477;48.072;11.970;2022-10-16T11:16:43;1.35;;;1.25;;
65206;SDS011;58477;48.072;11.970;2022-10-16T11:19:28;2.72;;;1.20;;
65206;SDS011;58477;48.072;11.970;2022-10-16T11:25:12;2.05;;;1.17;;
65206;SDS011;58477;48.072;11.970;2022-10-16T11:27:15;2.25;;;1.10;;
65206;SDS011;58477;48.072;11.970;2022-10-16T11:29:47;3.65;;;1.40;;
65206;SDS011;58477;48.072;11.970;2022-10-16T11:32:22;1.40;;;1.30;;
65206;SDS011;58477;48.072;11.970;2022-10-16T11:34:55;1.65;;;1.15;;
65206;SDS011;58477;48.072;11.970;2022-10-16T11:37:25;5.05;;;1.25;;
65206;SDS011;58477;48.072;11.970;2022-10-16T11:39:57;2.55;;;1.38;;
65206;SDS011;58477;48.072;11.970;2022-10-16T11:42:32;1.90;;;1.33;;
65206;SDS011;58477;48.072;11.970;2022-10-16T11:48:09;1.40;;;1.30;;
65206;SDS011;58477;48.072;11.970;2022-10-16T11:51:51;1.45;;;1.35;;
65206;SDS011;58477;48.072;11.970;2022-10-16T11:56:20;1.55;;;1.45;;
65206;SDS011;58477;48.072;11.970;2022-10-16T11:59:00;2.03;;;1.30;;
65206;SDS011;58477;48.072;11.970;2022-10-16T12:01:37;4.13;;;1.40;;
65206;SDS011;58477;48.072;11.970;2022-10-16T12:06:50;1.77;;;1.67;;
65206;SDS011;58477;48.072;11.970;2022-10-16T12:09:26;3.40;;;1.60;;
65206;SDS011;58477;48.072;11.970;2022-10-16T12:11:54;3.13;;;1.55;;
65206;SDS011;58477;48.072;11.970;2022-10-16T12:14:21;3.13;;;1.48;;
65206;SDS011;58477;48.072;11.970;2022-10-16T12:19:56;1.42;;;1.30;;
65206;SDS011;58477;48.072;11.970;2022-10-16T12:22:23;1.85;;;1.30;;
65206;SDS011;58477;48.072;11.970;2022-10-16T12:24:50;2.35;;;1.30;;
65206;SDS011;58477;48.072;11.970;2022-10-16T12:27:24;2.80;;;1.27;;
65206;SDS011;58477;48.072;11.970;2022-10-16T12:29:58;3.92;;;1.08;;
65206;SDS011;58477;48.072;11.970;2022-10-16T12:34:56;3.00;;;1.27;;
65206;SDS011;58477;48.072;11.970;2022-10-16T12:37:26;1.40;;;1.17;;
65206;SDS011;58477;48.072;11.970;2022-10-16T12:39:56;1.83;;;1.15;;
65206;SDS011;58477;48.072;11.970;2022-10-16T12:44:51;4.22;;;1.30;;
65206;SDS011;58477;48.072;11.970;2022-10-16T12:49:55;1.50;;;1.00;;
65206;SDS011;58477;48.072;11.970;2022-10-16T12:52:39;1.52;;;1.27;;
65206;SDS011;58477;48.072;11.970;2022-10-16T12:55:05;1.67;;;1.40;;
65206;SDS011;58477;48.072;11.970;2022-10-16T13:00:21;1.20;;;1.10;;
65206;SDS011;58477;48.072;11.970;2022-10-16T13:03:53;2.28;;;1.05;;
65206;SDS011;58477;48.072;11.970;2022-10-16T13:27:45;9.45;;;1.20;;
65206;SDS011;58477;48.072;11.970;2022-10-16T13:30:18;4.38;;;1.40;;
65206;SDS011;58477;48.072;11.970;2022-10-16T13:35:27;1.30;;;1.20;;
65206;SDS011;58477;48.072;11.970;2022-10-16T13:38:06;1.70;;;1.20;;
65206;SDS011;58477;48.072;11.970;2022-10-16T13:41:00;3.03;;;1.25;;
65206;SDS011;58477;48.072;11.970;2022-10-16T13:43:35;1.92;;;1.25;;
65206;SDS011;58477;48.072;11.970;2022-10-16T13:46:06;1.80;;;1.30;;
65206;SDS011;58477;48.072;11.970;2022-10-16T13:48:36;1.73;;;1.10;;
65206;SDS011;58477;48.072;11.970;2022-10-16T13:56:16;4.82;;;1.20;;
65206;SDS011;58477;48.072;11.970;2022-10-16T13:58:44;1.58;;;1.13;;
65206;SDS011;58477;48.072;11.970;2022-10-16T14:03:43;4.80;;;1.23;;
65206;SDS011;58477;48.072;11.970;2022-10-16T14:06:14;2.15;;;1.05;;
65206;SDS011;58477;48.072;11.970;2022-10-16T14:08:43;3.20;;;1.08;;
65206;SDS011;58477;48.072;11.970;2022-10-16T14:11:31;2.85;;;2.63;;
65206;SDS011;58477;48.072;11.970;2022-10-16T14:13:59;2.10;;;1.90;;
65206;SDS011;58477;48.072;11.970;2022-10-16T14:16:26;3.28;;;2.15;;
65206;SDS011;58477;48.072;11.970;2022-10-16T14:19:04;1.45;;;1.35;;
65206;SDS011;58477;48.072;11.970;2022-10-16T14:21:32;3.17;;;1.80;;
65206;SDS011;58477;48.072;11.970;2022-10-16T14:23:58;1.30;;;1.20;;
65206;SDS011;58477;48.072;11.970;2022-10-16T14:26:25;1.65;;;1.20;;
65206;SDS011;58477;48.072;11.970;2022-10-16T14:29:15;1.45;;;1.35;;
65206;SDS011;58477;48.072;11.970;2022-10-16T14:31:53;4.10;;;1.45;;
65206;SDS011;58477;48.072;11.970;2022-10-16T14:36:58;1.65;;;1.55;;
65206;SDS011;58477;48.072;11.970;2022-10-16T14:39:27;2.53;;;1.75;;
65206;SDS011;58477;48.072;11.970;2022-10-16T14:41:55;2.40;;;2.20;;
65206;SDS011;58477;48.072;11.970;2022-10-16T14:44:23;15.70;;;12.20;;
65206;SDS011;58477;48.072;11.970;2022-10-16T14:46:54;7.88;;;4.53;;
65206;SDS011;58477;48.072;11.970;2022-10-16T14:49:19;3.00;;;2.70;;
65206;SDS011;58477;48.072;11.970;2022-10-16T14:51:47;3.25;;;1.83;;
65206;SDS011;58477;48.072;11.970;2022-10-16T14:54:14;1.48;;;1.38;;
65206;SDS011;58477;48.072;11.970;2022-10-16T14:56:46;3.72;;;1.70;;
65206;SDS011;58477;48.072;11.970;2022-10-16T15:01:44;1.48;;;1.38;;
65206;SDS011;58477;48.072;11.970;2022-10-16T15:04:10;1.48;;;1.38;;
65206;SDS011;58477;48.072;11.970;2022-10-16T15:06:37;1.70;;;1.35;;
65206;SDS011;58477;48.072;11.970;2022-10-16T15:09:03;1.67;;;1.42;;
65206;SDS011;58477;48.072;11.970;2022-10-16T15:11:29;1.67;;;1.38;;
65206;SDS011;58477;48.072;11.970;2022-10-16T15:13:57;1.30;;;1.20;;
65206;SDS011;58477;48.072;11.970;2022-10-16T15:16:23;4.28;;;1.23;;
65206;SDS011;58477;48.072;11.970;2022-10-16T15:18:48;1.70;;;1.33;;
65206;SDS011;58477;48.072;11.970;2022-10-16T15:21:24;10.63;;;1.35;;
65206;SDS011;58477;48.072;11.970;2022-10-16T15:23:52;3.13;;;1.20;;
65206;SDS011;58477;48.072;11.970;2022-10-16T15:26:17;2.95;;;1.15;;
65206;SDS011;58477;48.072;11.970;2022-10-16T15:28:43;2.28;;;0.90;;
65206;SDS011;58477;48.072;11.970;2022-10-16T15:31:08;4.93;;;1.30;;
65206;SDS011;58477;48.072;11.970;2022-10-16T15:33:34;1.00;;;1.00;;
65206;SDS011;58477;48.072;11.970;2022-10-16T15:36:00;1.55;;;1.30;;
65206;SDS011;58477;48.072;11.970;2022-10-16T15:38:27;1.90;;;1.30;;
65206;SDS011;58477;48.072;11.970;2022-10-16T15:40:53;1.85;;;1.10;;
65206;SDS011;58477;48.072;11.970;2022-10-16T15:43:19;3.50;;;1.40;;
65206;SDS011;58477;48.072;11.970;2022-10-16T15:46:04;3.03;;;1.48;;
65206;SDS011;58477;48.072;11.970;2022-10-16T15:48:33;2.05;;;1.83;;
65206;SDS011;58477;48.072;11.970;2022-10-16T15:51:06;3.45;;;1.50;;
65206;SDS011;58477;48.072;11.970;2022-10-16T15:53:32;2.88;;;1.20;;
65206;SDS011;58477;48.072;11.970;2022-10-16T15:56:08;4.68;;;1.40;;
65206;SDS011;58477;48.072;11.970;2022-10-16T15:58:37;4.65;;;1.80;;
65206;SDS011;58477;48.072;11.970;2022-10-16T16:01:02;2.35;;;1.30;;
65206;SDS011;58477;48.072;11.970;2022-10-16T16:03:29;5.55;;;1.45;;
65206;SDS011;58477;48.072;11.970;2022-10-16T16:05:55;2.72;;;1.60;;
65206;SDS011;58477;48.072;11.970;2022-10-16T16:08:22;6.15;;;1.67;;
65206;SDS011;58477;48.072;11.970;2022-10-16T16:11:00;2.28;;;1.33;;
65206;SDS011;58477;48.072;11.970;2022-10-16T16:13:27;2.65;;;1.30;;
65206;SDS011;58477;48.072;11.970;2022-10-16T16:15:53;2.17;;;1.42;;
65206;SDS011;58477;48.072;11.970;2022-10-16T16:18:19;9.82;;;1.70;;
65206;SDS011;58477;48.072;11.970;2022-10-16T16:20:44;2.97;;;1.77;;
65206;SDS011;58477;48.072;11.970;2022-10-16T16:23:09;2.45;;;1.60;;
65206;SDS011;58477;48.072;11.970;2022-10-16T16:25:35;5.20;;;2.80;;
65206;SDS011;58477;48.072;11.970;2022-10-16T16:28:01;2.58;;;2.33;;
65206;SDS011;58477;48.072;11.970;2022-10-16T16:30:26;2.97;;;1.80;;
65206;SDS011;58477;48.072;11.970;2022-10-16T16:32:52;2.58;;;2.10;;
65206;SDS011;58477;48.072;11.970;2022-10-16T16:35:17;5.03;;;2.38;;
65206;SDS011;58477;48.072;11.970;2022-10-16T16:37:42;3.22;;;2.70;;
65206;SDS011;58477;48.072;11.970;2022-10-16T16:40:08;5.07;;;3.35;;
65206;SDS011;58477;48.072;11.970;2022-10-16T16:42:33;5.20;;;3.33;;
65206;SDS011;58477;48.072;11.970;2022-10-16T16:44:59;4.90;;;3.72;;
65206;SDS011;58477;48.072;11.970;2022-10-16T16:47:24;9.05;;;5.13;;
65206;SDS011;58477;48.072;11.970;2022-10-16T16:49:50;5.55;;;3.63;;
65206;SDS011;58477;48.072;11.970;2022-10-16T16:52:16;6.53;;;2.25;;